createdAt,value
2024-04-02T00:00:52.768Z,0.00
2024-04-02T00:01:52.752Z,0.00
2024-04-02T00:02:52.742Z,0.00
2024-04-02T00:03:52.769Z,0.00
2024-04-02T00:04:52.727Z,0.00
2024-04-02T00:05:52.728Z,0.00
2024-04-02T00:06:52.712Z,0.00
2024-04-02T00:07:52.693Z,0.00
2024-04-02T00:08:52.681Z,0.00
2024-04-02T00:09:52.681Z,0.00
2024-04-02T00:10:52.664Z,0.00
2024-04-02T00:11:52.664Z,0.00
2024-04-02T00:12:52.635Z,0.00
2024-04-02T00:13:52.627Z,0.00
2024-04-02T00:14:52.615Z,0.00
2024-04-02T00:15:52.605Z,0.00
2024-04-02T00:16:52.596Z,0.00
2024-04-02T00:17:52.578Z,0.00
2024-04-02T00:18:52.566Z,0.00
2024-04-02T00:19:52.557Z,0.00
2024-04-02T00:20:52.545Z,0.00
2024-04-02T00:21:52.557Z,0.00
2024-04-02T00:22:52.534Z,0.00
2024-04-02T00:23:52.517Z,0.00
2024-04-02T00:24:52.499Z,0.00
2024-04-02T00:25:52.501Z,0.00
2024-04-02T00:26:52.480Z,0.00
2024-04-02T00:27:52.482Z,0.00
2024-04-02T00:28:52.459Z,0.00
2024-04-02T00:29:52.449Z,0.00
2024-04-02T00:30:52.448Z,0.00
2024-04-02T00:31:52.431Z,0.00
2024-04-02T00:32:52.441Z,0.00
2024-04-02T00:33:52.415Z,0.00
2024-04-02T00:34:52.426Z,0.00
2024-04-02T00:35:52.382Z,0.00
2024-04-02T00:36:52.376Z,0.00
2024-04-02T00:37:52.367Z,0.00
2024-04-02T00:38:52.374Z,0.00
2024-04-02T00:39:52.362Z,0.00
2024-04-02T00:40:52.331Z,0.00
2024-04-02T00:41:52.341Z,0.00
2024-04-02T00:42:52.310Z,0.00
2024-04-02T00:43:52.310Z,0.00
2024-04-02T00:44:52.285Z,0.00
2024-04-02T00:45:52.274Z,0.00
2024-04-02T00:46:52.276Z,0.00
2024-04-02T00:47:52.288Z,0.00
2024-04-02T00:48:52.254Z,0.00
2024-04-02T00:49:52.232Z,0.00
2024-04-02T00:50:52.232Z,0.00
2024-04-02T00:51:52.217Z,0.00
2024-04-02T00:52:52.216Z,0.00
2024-04-02T00:53:52.201Z,0.00
2024-04-02T00:54:52.194Z,0.00
2024-04-02T00:55:52.173Z,0.00
2024-04-02T00:56:52.154Z,0.00
2024-04-02T00:57:52.146Z,0.00
2024-04-02T00:58:52.131Z,0.00
2024-04-02T00:59:52.134Z,0.00
2024-04-02T01:00:52.118Z,0.00
2024-04-02T01:01:52.107Z,0.00
2024-04-02T01:02:52.091Z,0.00
2024-04-02T01:03:52.081Z,0.00
2024-04-02T01:04:52.081Z,0.00
2024-04-02T01:05:52.068Z,0.00
2024-04-02T01:06:52.050Z,0.00
2024-04-02T01:07:52.042Z,0.00
2024-04-02T01:08:52.027Z,0.00
2024-04-02T01:09:52.029Z,0.00
2024-04-02T01:10:52.008Z,0.00
2024-04-02T01:11:51.998Z,0.00
2024-04-02T01:12:51.983Z,0.00
2024-04-02T01:13:51.985Z,0.00
2024-04-02T01:14:51.969Z,0.00
2024-04-02T01:15:51.955Z,0.00
2024-04-02T01:16:51.962Z,0.00
2024-04-02T01:17:51.942Z,0.00
2024-04-02T01:18:51.934Z,0.00
2024-04-02T01:19:51.936Z,0.00
2024-04-02T01:20:51.897Z,0.00
2024-04-02T01:21:51.895Z,0.00
2024-04-02T01:22:51.885Z,0.00
2024-04-02T01:23:51.871Z,0.00
2024-04-02T01:24:58.594Z,0.00
2024-04-02T01:25:51.852Z,0.00
2024-04-02T01:26:51.834Z,0.00
2024-04-02T01:27:51.819Z,0.00
2024-04-02T01:28:51.831Z,0.00
2024-04-02T01:29:51.804Z,0.00
2024-04-02T01:30:51.803Z,0.00
2024-04-02T01:31:51.773Z,0.00
2024-04-02T01:32:51.767Z,0.00
2024-04-02T01:33:51.757Z,0.00
2024-04-02T01:34:51.753Z,0.00
2024-04-02T01:35:51.763Z,0.00
2024-04-02T01:36:51.725Z,0.00
2024-04-02T01:37:51.726Z,0.00
2024-04-02T01:38:51.710Z,0.00
2024-04-02T01:39:51.700Z,0.00
2024-04-02T01:40:51.693Z,0.00
2024-04-02T01:41:51.689Z,0.00
2024-04-02T01:42:51.662Z,0.00
2024-04-02T01:43:51.649Z,0.00
2024-04-02T01:44:51.672Z,0.00
2024-04-02T01:45:51.635Z,0.00
2024-04-02T01:46:51.629Z,0.00
2024-04-02T01:47:51.665Z,0.00
2024-04-02T01:48:51.600Z,0.00
2024-04-02T01:49:51.585Z,0.00
2024-04-02T01:50:51.577Z,0.00
2024-04-02T01:51:51.597Z,0.00
2024-04-02T01:52:51.570Z,0.00
2024-04-02T01:53:51.554Z,0.00
2024-04-02T01:54:51.541Z,0.00
2024-04-02T01:55:51.523Z,0.00
2024-04-02T01:56:51.534Z,0.00
2024-04-02T01:57:51.504Z,0.00
2024-04-02T01:58:51.505Z,0.00
2024-04-02T01:59:51.488Z,0.00
2024-04-02T02:00:51.487Z,0.00
2024-04-02T02:01:51.460Z,0.00
2024-04-02T02:02:51.518Z,0.00
2024-04-02T02:03:51.433Z,0.00
2024-04-02T02:04:51.424Z,0.00
2024-04-02T02:05:51.409Z,0.00
2024-04-02T02:06:51.402Z,0.00
2024-04-02T02:07:51.421Z,0.00
2024-04-02T02:08:51.383Z,0.00
2024-04-02T02:09:51.367Z,0.00
2024-04-02T02:10:51.359Z,0.00
2024-04-02T02:11:51.377Z,0.00
2024-04-02T02:12:51.351Z,0.00
2024-04-02T02:13:51.334Z,0.00
2024-04-02T02:14:51.321Z,0.00
2024-04-02T02:15:51.307Z,0.00
2024-04-02T02:16:51.296Z,0.00
2024-04-02T02:17:51.360Z,0.00
2024-04-02T02:18:51.275Z,0.00
2024-04-02T02:19:51.278Z,0.00
2024-04-02T02:20:51.250Z,0.00
2024-04-02T02:21:51.236Z,0.00
2024-04-02T02:22:51.540Z,0.00
2024-04-02T02:23:51.230Z,0.00
2024-04-02T02:24:51.229Z,0.00
2024-04-02T02:25:51.193Z,0.00
2024-04-02T02:26:51.190Z,0.00
2024-04-02T02:27:51.173Z,0.00
2024-04-02T02:28:51.178Z,0.00
2024-04-02T02:29:51.143Z,0.00
2024-04-02T02:30:51.137Z,0.00
2024-04-02T02:31:51.151Z,0.00
2024-04-02T02:32:51.130Z,0.00
2024-04-02T02:33:51.117Z,0.00
2024-04-02T02:34:51.095Z,0.00
2024-04-02T02:35:51.077Z,0.00
2024-04-02T02:36:51.075Z,0.00
2024-04-02T02:37:51.056Z,0.00
2024-04-02T02:38:51.069Z,0.00
2024-04-02T02:39:51.046Z,0.00
2024-04-02T02:40:51.027Z,0.00
2024-04-02T02:41:51.025Z,0.00
2024-04-02T02:42:51.008Z,0.00
2024-04-02T02:43:51.011Z,0.00
2024-04-02T02:44:50.985Z,0.00
2024-04-02T02:45:50.993Z,0.00
2024-04-02T02:46:50.964Z,0.00
2024-04-02T02:47:50.948Z,0.00
2024-04-02T02:48:50.944Z,0.00
2024-04-02T02:49:50.955Z,0.00
2024-04-02T02:50:50.925Z,0.00
2024-04-02T02:51:50.915Z,0.00
2024-04-02T02:52:50.899Z,0.00
2024-04-02T02:53:50.886Z,0.00
2024-04-02T02:54:50.875Z,0.00
2024-04-02T02:55:50.875Z,0.00
2024-04-02T02:56:50.850Z,0.00
2024-04-02T02:57:50.840Z,0.00
2024-04-02T02:58:50.833Z,0.00
2024-04-02T02:59:50.829Z,0.00
2024-04-02T03:00:50.820Z,0.00
2024-04-02T03:01:50.807Z,0.00
2024-04-02T03:02:50.794Z,0.00
2024-04-02T03:03:50.777Z,0.00
2024-04-02T03:04:50.766Z,0.00
2024-04-02T03:05:50.754Z,0.00
2024-04-02T03:06:50.811Z,0.00
2024-04-02T03:07:50.743Z,0.00
2024-04-02T03:08:50.723Z,0.00
2024-04-02T03:09:50.725Z,0.00
2024-04-02T03:10:50.714Z,0.00
2024-04-02T03:11:50.729Z,0.00
2024-04-02T03:12:50.685Z,0.00
2024-04-02T03:13:50.670Z,0.00
2024-04-02T03:14:50.666Z,0.00
2024-04-02T03:15:50.647Z,0.00
2024-04-02T03:16:50.641Z,0.00
2024-04-02T03:17:50.664Z,0.00
2024-04-02T03:18:50.625Z,0.00
2024-04-02T03:19:50.605Z,0.00
2024-04-02T03:20:50.595Z,0.00
2024-04-02T03:21:50.582Z,0.00
2024-04-02T03:22:50.590Z,0.00
2024-04-02T03:23:50.578Z,0.00
2024-04-02T03:24:50.554Z,0.00
2024-04-02T03:25:50.565Z,0.00
2024-04-02T03:26:50.538Z,0.00
2024-04-02T03:27:50.535Z,0.00
2024-04-02T03:28:50.535Z,0.00
2024-04-02T03:29:50.503Z,0.00
2024-04-02T03:30:50.493Z,0.00
2024-04-02T03:31:50.480Z,0.00
2024-04-02T03:32:50.476Z,0.00
2024-04-02T03:33:50.455Z,0.00
2024-04-02T03:34:50.448Z,0.00
2024-04-02T03:35:50.443Z,0.00
2024-04-02T03:36:50.437Z,0.00
2024-04-02T03:37:50.436Z,0.00
2024-04-02T03:38:50.405Z,0.00
2024-04-02T03:39:50.400Z,0.00
2024-04-02T03:40:50.383Z,0.00
2024-04-02T03:41:50.370Z,0.00
2024-04-02T03:42:50.374Z,0.00
2024-04-02T03:43:50.374Z,0.00
2024-04-02T03:44:50.341Z,0.00
2024-04-02T03:45:50.333Z,0.00
2024-04-02T03:46:50.325Z,0.00
2024-04-02T03:47:50.323Z,0.00
2024-04-02T03:48:50.309Z,0.00
2024-04-02T03:49:50.286Z,0.00
2024-04-02T03:50:50.302Z,0.00
2024-04-02T03:51:50.263Z,0.00
2024-04-02T03:52:50.274Z,0.00
2024-04-02T03:53:50.250Z,0.00
2024-04-02T03:54:50.235Z,0.00
2024-04-02T03:55:50.219Z,0.00
2024-04-02T03:56:50.214Z,0.00
2024-04-02T03:57:50.210Z,0.00
2024-04-02T03:58:50.198Z,0.00
2024-04-02T03:59:50.183Z,0.00
2024-04-02T04:00:50.194Z,0.00
2024-04-02T04:01:50.156Z,0.00
2024-04-02T04:02:50.153Z,0.00
2024-04-02T04:03:50.136Z,0.00
2024-04-02T04:04:50.127Z,0.00
2024-04-02T04:05:50.124Z,0.00
2024-04-02T04:06:50.118Z,0.00
2024-04-02T04:07:50.100Z,0.00
2024-04-02T04:08:50.090Z,0.00
2024-04-02T04:09:50.081Z,0.00
2024-04-02T04:10:50.085Z,0.00
2024-04-02T04:11:50.049Z,0.00
2024-04-02T04:12:50.053Z,0.00
2024-04-02T04:13:50.023Z,0.00
2024-04-02T04:14:50.018Z,0.00
2024-04-02T04:15:50.033Z,0.00
2024-04-02T04:16:50.017Z,0.00
2024-04-02T04:17:49.982Z,0.00
2024-04-02T04:18:49.970Z,0.00
2024-04-02T04:19:49.963Z,0.00
2024-04-02T04:20:49.954Z,0.00
2024-04-02T04:21:49.952Z,0.00
2024-04-02T04:22:49.930Z,0.00
2024-04-02T04:23:49.928Z,0.00
2024-04-02T04:24:49.914Z,0.00
2024-04-02T04:25:49.895Z,0.00
2024-04-02T04:26:49.894Z,0.00
2024-04-02T04:27:49.872Z,0.00
2024-04-02T04:28:49.861Z,0.00
2024-04-02T04:29:52.223Z,0.00
2024-04-02T04:30:49.842Z,0.00
2024-04-02T04:31:49.842Z,0.00
2024-04-02T04:32:49.823Z,0.00
2024-04-02T04:33:49.803Z,0.00
2024-04-02T04:34:49.791Z,0.00
2024-04-02T04:35:49.851Z,0.00
2024-04-02T04:36:49.780Z,0.00
2024-04-02T04:37:49.769Z,0.00
2024-04-02T04:38:49.767Z,0.00
2024-04-02T04:39:49.742Z,0.00
2024-04-02T04:40:49.733Z,0.00
2024-04-02T04:41:49.724Z,0.00
2024-04-02T04:42:49.714Z,0.00
2024-04-02T04:43:49.735Z,0.00
2024-04-02T04:44:49.691Z,0.00
2024-04-02T04:45:49.670Z,0.00
2024-04-02T04:46:49.667Z,0.00
2024-04-02T04:47:49.648Z,0.00
2024-04-02T04:48:49.664Z,0.00
2024-04-02T04:49:49.644Z,0.00
2024-04-02T04:50:49.663Z,0.00
2024-04-02T04:51:49.604Z,0.00
2024-04-02T04:52:49.600Z,0.00
2024-04-02T04:53:49.591Z,0.00
2024-04-02T04:54:49.583Z,0.00
2024-04-02T04:55:49.561Z,0.00
2024-04-02T04:56:49.566Z,0.00
2024-04-02T04:57:51.563Z,0.00
2024-04-02T04:58:49.540Z,0.00
2024-04-02T04:59:49.538Z,0.00
2024-04-02T05:00:49.522Z,0.00
2024-04-02T05:01:49.513Z,5.62
2024-04-02T05:02:49.490Z,5.62
2024-04-02T05:03:49.485Z,5.62
2024-04-02T05:04:49.474Z,5.62
2024-04-02T05:05:49.453Z,5.62
2024-04-02T05:06:49.470Z,5.62
2024-04-02T05:07:49.434Z,5.62
2024-04-02T05:08:52.493Z,5.62
2024-04-02T05:09:49.411Z,5.62
2024-04-02T05:10:49.408Z,5.62
2024-04-02T05:11:49.401Z,5.62
2024-04-02T05:12:49.380Z,5.62
2024-04-02T05:13:49.367Z,5.62
2024-04-02T05:14:49.364Z,5.62
2024-04-02T05:15:49.342Z,5.62
2024-04-02T05:16:49.369Z,11.25
2024-04-02T05:17:49.328Z,11.25
2024-04-02T05:18:49.318Z,11.25
2024-04-02T05:19:49.298Z,11.25
2024-04-02T05:20:49.292Z,11.25
2024-04-02T05:21:49.302Z,11.25
2024-04-02T05:22:49.276Z,11.25
2024-04-02T05:23:49.255Z,11.25
2024-04-02T05:24:49.249Z,11.25
2024-04-02T05:25:49.260Z,11.25
2024-04-02T05:26:49.285Z,11.25
2024-04-02T05:27:49.227Z,11.25
2024-04-02T05:28:49.206Z,11.25
2024-04-02T05:29:49.190Z,11.25
2024-04-02T05:30:49.198Z,11.25
2024-04-02T05:31:49.176Z,11.25
2024-04-02T05:32:49.161Z,16.88
2024-04-02T05:33:49.147Z,16.88
2024-04-02T05:34:49.142Z,16.88
2024-04-02T05:35:49.120Z,16.88
2024-04-02T05:36:49.129Z,16.88
2024-04-02T05:37:49.129Z,16.88
2024-04-02T05:38:49.101Z,16.88
2024-04-02T05:39:49.084Z,16.88
2024-04-02T05:40:49.070Z,16.88
2024-04-02T05:41:49.059Z,16.88
2024-04-02T05:42:49.073Z,16.88
2024-04-02T05:43:49.039Z,16.88
2024-04-02T05:44:49.024Z,16.88
2024-04-02T05:45:49.031Z,16.88
2024-04-02T05:46:49.006Z,16.88
2024-04-02T05:47:49.000Z,16.88
2024-04-02T05:48:48.990Z,22.50
2024-04-02T05:49:48.977Z,22.50
2024-04-02T05:50:48.964Z,22.50
2024-04-02T05:51:48.957Z,22.50
2024-04-02T05:52:48.956Z,22.50
2024-04-02T05:53:48.929Z,22.50
2024-04-02T05:54:48.929Z,22.50
2024-04-02T05:55:48.901Z,22.50
2024-04-02T05:56:48.907Z,22.50
2024-04-02T05:57:48.898Z,22.50
2024-04-02T05:58:48.882Z,22.50
2024-04-02T05:59:48.857Z,22.50
2024-04-02T06:00:48.879Z,22.50
2024-04-02T06:01:48.843Z,22.50
2024-04-02T06:02:48.835Z,22.50
2024-04-02T06:03:48.815Z,28.12
2024-04-02T06:04:48.862Z,28.12
2024-04-02T06:05:48.815Z,28.12
2024-04-02T06:06:48.811Z,28.12
2024-04-02T06:07:48.785Z,28.12
2024-04-02T06:08:48.765Z,28.12
2024-04-02T06:09:48.750Z,33.75
2024-04-02T06:10:48.759Z,33.75
2024-04-02T06:11:48.738Z,33.75
2024-04-02T06:12:48.733Z,33.75
2024-04-02T06:13:48.713Z,33.75
2024-04-02T06:14:48.702Z,28.12
2024-04-02T06:15:48.715Z,28.12
2024-04-02T06:16:48.690Z,28.12
2024-04-02T06:17:48.669Z,28.12
2024-04-02T06:18:48.686Z,28.12
2024-04-02T06:19:48.642Z,28.12
2024-04-02T06:20:48.638Z,33.75
2024-04-02T06:21:48.636Z,28.12
2024-04-02T06:22:48.613Z,28.12
2024-04-02T06:23:48.644Z,28.12
2024-04-02T06:24:48.589Z,33.75
2024-04-02T06:25:48.583Z,33.75
2024-04-02T06:26:48.601Z,33.75
2024-04-02T06:27:48.559Z,28.12
2024-04-02T06:28:48.570Z,33.75
2024-04-02T06:29:49.166Z,28.12
2024-04-02T06:30:48.527Z,33.75
2024-04-02T06:31:48.523Z,33.75
2024-04-02T06:32:48.506Z,33.75
2024-04-02T06:33:48.496Z,33.75
2024-04-02T06:34:48.503Z,33.75
2024-04-02T06:35:48.471Z,33.75
2024-04-02T06:36:48.462Z,33.75
2024-04-02T06:37:48.450Z,33.75
2024-04-02T06:38:48.438Z,33.75
2024-04-02T06:39:48.452Z,33.75
2024-04-02T06:40:48.434Z,33.75
2024-04-02T06:41:48.417Z,39.38
2024-04-02T06:42:48.410Z,45.00
2024-04-02T06:43:48.384Z,45.00
2024-04-02T06:44:48.392Z,39.38
2024-04-02T06:45:48.372Z,22.50
2024-04-02T06:46:50.496Z,22.50
2024-04-02T06:47:48.345Z,45.00
2024-04-02T06:48:48.338Z,45.00
2024-04-02T06:49:48.322Z,45.00
2024-04-02T06:50:48.326Z,39.38
2024-04-02T06:51:48.308Z,45.00
2024-04-02T06:52:48.312Z,33.75
2024-04-02T06:53:48.277Z,39.38
2024-04-02T06:54:48.261Z,39.38
2024-04-02T06:55:48.291Z,39.38
2024-04-02T06:56:48.252Z,39.38
2024-04-02T06:57:48.246Z,45.00
2024-04-02T06:58:48.250Z,45.00
2024-04-02T06:59:50.651Z,45.00
2024-04-02T07:00:48.200Z,45.00
2024-04-02T07:01:48.189Z,45.00
2024-04-02T07:02:48.177Z,45.00
2024-04-02T07:03:48.193Z,50.62
2024-04-02T07:04:48.158Z,50.62
2024-04-02T07:05:48.155Z,50.62
2024-04-02T07:06:48.130Z,50.62
2024-04-02T07:07:48.447Z,50.62
2024-04-02T07:08:48.131Z,28.12
2024-04-02T07:09:48.778Z,50.62
2024-04-02T07:10:48.087Z,50.62
2024-04-02T07:11:48.090Z,50.62
2024-04-02T07:12:48.073Z,50.62
2024-04-02T07:13:48.078Z,50.62
2024-04-02T07:14:48.056Z,50.62
2024-04-02T07:15:48.038Z,33.75
2024-04-02T07:16:48.030Z,56.25
2024-04-02T07:17:48.014Z,33.75
2024-04-02T07:18:48.003Z,50.62
2024-04-02T07:19:48.017Z,28.12
2024-04-02T07:20:49.759Z,50.62
2024-04-02T07:21:47.976Z,28.12
2024-04-02T07:22:48.001Z,50.62
2024-04-02T07:23:47.953Z,56.25
2024-04-02T07:24:47.954Z,50.62
2024-04-02T07:25:47.935Z,50.62
2024-04-02T07:26:47.921Z,56.25
2024-04-02T07:27:47.915Z,33.75
2024-04-02T07:28:47.901Z,50.62
2024-04-02T07:29:47.904Z,33.75
2024-04-02T07:30:47.879Z,56.25
2024-04-02T07:31:47.909Z,45.00
2024-04-02T07:32:47.869Z,56.25
2024-04-02T07:33:47.869Z,56.25
2024-04-02T07:34:47.844Z,56.25
2024-04-02T07:35:47.848Z,61.88
2024-04-02T07:36:47.834Z,61.88
2024-04-02T07:37:47.822Z,73.12
2024-04-02T07:38:47.795Z,39.38
2024-04-02T07:39:47.892Z,50.62
2024-04-02T07:40:47.765Z,50.62
2024-04-02T07:41:47.775Z,50.62
2024-04-02T07:42:47.760Z,56.25
2024-04-02T07:43:47.770Z,61.88
2024-04-02T07:44:47.736Z,56.25
2024-04-02T07:45:47.738Z,50.62
2024-04-02T07:46:47.701Z,56.25
2024-04-02T07:47:47.705Z,50.62
2024-04-02T07:48:47.702Z,39.38
2024-04-02T07:49:47.677Z,39.38
2024-04-02T07:50:47.658Z,39.38
2024-04-02T07:51:47.650Z,33.75
2024-04-02T07:52:47.633Z,28.12
2024-04-02T07:53:47.838Z,22.50
2024-04-02T07:54:47.621Z,33.75
2024-04-02T07:55:47.618Z,33.75
2024-04-02T07:56:47.630Z,33.75
2024-04-02T07:57:47.581Z,28.12
2024-04-02T07:58:47.585Z,28.12
2024-04-02T07:59:47.564Z,28.12
2024-04-02T08:00:47.591Z,22.50
2024-04-02T08:01:47.538Z,28.12
2024-04-02T08:02:47.523Z,33.75
2024-04-02T08:03:47.522Z,33.75
2024-04-02T08:04:47.509Z,28.12
2024-04-02T08:05:47.496Z,39.38
2024-04-02T08:06:47.503Z,45.00
2024-04-02T08:07:47.471Z,50.62
2024-04-02T08:08:47.490Z,50.62
2024-04-02T08:09:47.450Z,50.62
2024-04-02T08:10:47.461Z,56.25
2024-04-02T08:11:47.439Z,61.88
2024-04-02T08:12:47.424Z,61.88
2024-04-02T08:13:47.411Z,61.88
2024-04-02T08:14:47.498Z,67.50
2024-04-02T08:15:47.390Z,61.88
2024-04-02T08:16:47.382Z,67.50
2024-04-02T08:17:47.362Z,61.88
2024-04-02T08:18:47.386Z,61.88
2024-04-02T08:19:47.356Z,61.88
2024-04-02T08:20:47.325Z,56.25
2024-04-02T08:21:47.339Z,61.88
2024-04-02T08:22:47.313Z,61.88
2024-04-02T08:23:47.304Z,56.25
2024-04-02T08:24:47.280Z,56.25
2024-04-02T08:25:47.283Z,61.88
2024-04-02T08:26:47.274Z,61.88
2024-04-02T08:27:47.267Z,56.25
2024-04-02T08:28:47.279Z,56.25
2024-04-02T08:29:47.233Z,50.62
2024-04-02T08:30:47.226Z,56.25
2024-04-02T08:31:47.209Z,61.88
2024-04-02T08:32:47.943Z,61.88
2024-04-02T08:33:47.204Z,56.25
2024-04-02T08:34:47.186Z,61.88
2024-04-02T08:35:47.164Z,61.88
2024-04-02T08:36:47.148Z,84.38
2024-04-02T08:37:47.144Z,61.88
2024-04-02T08:38:47.139Z,73.12
2024-04-02T08:39:47.129Z,67.50
2024-04-02T08:40:47.111Z,84.38
2024-04-02T08:41:47.105Z,67.50
2024-04-02T08:43:47.122Z,61.88
2024-04-02T08:44:47.083Z,56.25
2024-04-02T08:45:47.062Z,56.25
2024-04-02T08:46:47.052Z,61.88
2024-04-02T08:47:47.040Z,78.75
2024-04-02T08:48:47.042Z,67.50
2024-04-02T08:49:47.025Z,73.12
2024-04-02T08:50:47.011Z,73.12
2024-04-02T08:51:47.018Z,90.00
2024-04-02T08:52:47.004Z,67.50
2024-04-02T08:53:46.991Z,95.62
2024-04-02T08:54:46.979Z,78.75
2024-04-02T08:55:46.986Z,78.75
2024-04-02T08:56:46.945Z,50.62
2024-04-02T08:57:46.931Z,56.25
2024-04-02T08:58:46.926Z,61.88
2024-04-02T08:59:46.916Z,61.88
2024-04-02T09:00:46.892Z,61.88
2024-04-02T09:01:46.887Z,61.88
2024-04-02T09:02:46.874Z,67.50
2024-04-02T09:03:46.866Z,67.50
2024-04-02T09:04:46.856Z,67.50
2024-04-02T09:05:46.848Z,56.25
2024-04-02T09:06:46.825Z,61.88
2024-04-02T09:07:46.831Z,56.25
2024-04-02T09:08:46.809Z,61.88
2024-04-02T09:09:46.798Z,67.50
2024-04-02T09:10:46.815Z,78.75
2024-04-02T09:11:46.789Z,56.25
2024-04-02T09:12:46.768Z,56.25
2024-04-02T09:13:46.762Z,50.62
2024-04-02T09:14:46.759Z,56.25
2024-04-02T09:15:46.740Z,61.88
2024-04-02T09:16:46.718Z,67.50
2024-04-02T09:17:46.711Z,67.50
2024-04-02T09:18:46.703Z,84.38
2024-04-02T09:19:46.690Z,56.25
2024-04-02T09:20:46.706Z,50.62
2024-04-02T09:21:46.683Z,45.00
2024-04-02T09:22:46.652Z,39.38
2024-04-02T09:23:46.654Z,50.62
2024-04-02T09:24:46.650Z,67.50
2024-04-02T09:25:46.871Z,61.88
2024-04-02T09:26:46.611Z,50.62
2024-04-02T09:27:46.603Z,39.38
2024-04-02T09:28:46.586Z,28.12
2024-04-02T09:29:46.580Z,22.50
2024-04-02T09:30:46.606Z,28.12
2024-04-02T09:31:46.561Z,28.12
2024-04-02T09:32:46.543Z,28.12
2024-04-02T09:33:46.578Z,28.12
2024-04-02T09:34:46.529Z,28.12
2024-04-02T09:35:46.527Z,39.38
2024-04-02T09:36:46.514Z,45.00
2024-04-02T09:37:46.497Z,56.25
2024-04-02T09:38:46.512Z,78.75
2024-04-02T09:39:46.464Z,95.62
2024-04-02T09:40:46.496Z,90.00
2024-04-02T09:41:57.775Z,84.38
2024-04-02T09:42:46.433Z,67.50
2024-04-02T09:43:46.440Z,67.50
2024-04-02T09:44:46.575Z,73.12
2024-04-02T09:45:46.398Z,67.50
2024-04-02T09:46:46.477Z,61.88
2024-04-02T09:47:46.381Z,73.12
2024-04-02T09:48:46.373Z,101.25
2024-04-02T09:49:46.367Z,84.38
2024-04-02T09:50:46.345Z,90.00
2024-04-02T09:51:46.343Z,84.38
2024-04-02T09:52:46.336Z,95.62
2024-04-02T09:53:56.640Z,73.12
2024-04-02T09:54:46.305Z,78.75
2024-04-02T09:55:46.292Z,61.88
2024-04-02T09:56:46.293Z,39.38
2024-04-02T09:57:46.287Z,45.00
2024-04-02T09:58:46.284Z,56.25
2024-04-02T09:59:46.252Z,67.50
2024-04-02T10:00:46.243Z,78.75
2024-04-02T10:01:46.244Z,84.38
2024-04-02T10:02:46.226Z,90.00
2024-04-02T10:03:46.242Z,90.00
2024-04-02T10:04:46.229Z,101.25
2024-04-02T10:05:46.197Z,101.25
2024-04-02T10:06:55.439Z,95.62
2024-04-02T10:07:46.201Z,90.00
2024-04-02T10:08:46.188Z,84.38
2024-04-02T10:09:46.145Z,67.50
2024-04-02T10:10:46.184Z,50.62
2024-04-02T10:11:46.123Z,45.00
2024-04-02T10:12:46.113Z,50.62
2024-04-02T10:13:46.095Z,50.62
2024-04-02T10:14:46.091Z,50.62
2024-04-02T10:15:46.081Z,39.38
2024-04-02T10:16:46.144Z,28.12
2024-04-02T10:17:46.078Z,22.50
2024-04-02T10:18:46.141Z,16.88
2024-04-02T10:19:46.046Z,22.50
2024-04-02T10:20:46.023Z,28.12
2024-04-02T10:21:46.033Z,28.12
2024-04-02T10:22:46.011Z,28.12
2024-04-02T10:23:45.994Z,28.12
2024-04-02T10:24:45.978Z,28.12
2024-04-02T10:25:45.983Z,39.38
2024-04-02T10:26:45.984Z,50.62
2024-04-02T10:27:45.943Z,56.25
2024-04-02T10:28:45.935Z,67.50
2024-04-02T10:29:45.932Z,67.50
2024-04-02T10:30:45.910Z,61.88
2024-04-02T10:31:45.908Z,67.50
2024-04-02T10:32:45.908Z,78.75
2024-04-02T10:33:45.915Z,90.00
2024-04-02T10:34:46.631Z,101.25
2024-04-02T10:35:45.872Z,84.38
2024-04-02T10:36:45.866Z,67.50
2024-04-02T10:37:45.841Z,67.50
2024-04-02T10:38:45.826Z,73.12
2024-04-02T10:39:45.810Z,78.75
2024-04-02T10:40:45.807Z,73.12
2024-04-02T10:41:45.793Z,67.50
2024-04-02T10:42:45.799Z,67.50
2024-04-02T10:43:45.766Z,73.12
2024-04-02T10:44:45.777Z,73.12
2024-04-02T10:45:45.786Z,78.75
2024-04-02T10:46:45.758Z,67.50
2024-04-02T10:47:45.752Z,67.50
2024-04-02T10:48:45.732Z,67.50
2024-04-02T10:49:45.705Z,67.50
2024-04-02T10:50:45.699Z,73.12
2024-04-02T10:51:45.683Z,78.75
2024-04-02T10:52:45.675Z,73.12
2024-04-02T10:53:45.689Z,67.50
2024-04-02T10:54:45.658Z,61.88
2024-04-02T10:55:45.647Z,61.88
2024-04-02T10:56:45.630Z,56.25
2024-04-02T10:57:45.634Z,56.25
2024-04-02T10:58:45.617Z,56.25
2024-04-02T10:59:45.610Z,67.50
2024-04-02T11:00:45.591Z,78.75
2024-04-02T11:01:45.601Z,95.62
2024-04-02T11:02:45.596Z,95.62
2024-04-02T11:03:45.557Z,90.00
2024-04-02T11:04:45.571Z,84.38
2024-04-02T11:05:45.532Z,95.62
2024-04-02T11:06:45.543Z,101.25
2024-04-02T11:07:45.509Z,101.25
2024-04-02T11:08:45.506Z,129.38
2024-04-02T11:09:45.538Z,129.38
2024-04-02T11:10:45.478Z,146.25
2024-04-02T11:11:45.465Z,135.00
2024-04-02T11:12:45.479Z,168.75
2024-04-02T11:13:45.448Z,129.38
2024-04-02T11:14:46.385Z,140.62
2024-04-02T11:15:45.633Z,135.00
2024-04-02T11:16:45.472Z,101.25
2024-04-02T11:17:45.446Z,78.75
2024-04-02T11:18:45.408Z,67.50
2024-04-02T11:19:45.413Z,67.50
2024-04-02T11:20:45.374Z,61.88
2024-04-02T11:21:45.359Z,67.50
2024-04-02T11:22:45.354Z,56.25
2024-04-02T11:23:46.917Z,45.00
2024-04-02T11:24:45.332Z,45.00
2024-04-02T11:25:45.337Z,39.38
2024-04-02T11:26:45.308Z,45.00
2024-04-02T11:27:45.297Z,50.62
2024-04-02T11:28:45.570Z,50.62
2024-04-02T11:29:45.303Z,45.00
2024-04-02T11:30:45.278Z,45.00
2024-04-02T11:31:45.263Z,45.00
2024-04-02T11:32:45.240Z,45.00
2024-04-02T11:33:45.228Z,56.25
2024-04-02T11:34:45.248Z,67.50
2024-04-02T11:35:45.212Z,90.00
2024-04-02T11:36:45.213Z,112.50
2024-04-02T11:37:45.223Z,118.12
2024-04-02T11:38:45.171Z,112.50
2024-04-02T11:39:54.039Z,101.25
2024-04-02T11:40:45.155Z,101.25
2024-04-02T11:41:45.169Z,101.25
2024-04-02T11:42:45.127Z,101.25
2024-04-02T11:43:45.121Z,95.62
2024-04-02T11:44:45.135Z,84.38
2024-04-02T11:45:45.096Z,78.75
2024-04-02T11:46:45.091Z,78.75
2024-04-02T11:47:45.086Z,90.00
2024-04-02T11:48:45.060Z,84.38
2024-04-02T11:49:45.128Z,101.25
2024-04-02T11:50:45.068Z,298.12
2024-04-02T11:51:45.032Z,292.50
2024-04-02T11:52:45.015Z,101.25
2024-04-02T11:53:45.025Z,95.62
2024-04-02T11:54:45.040Z,95.62
2024-04-02T11:55:44.999Z,73.12
2024-04-02T11:56:44.993Z,67.50
2024-04-02T11:57:44.980Z,67.50
2024-04-02T11:58:44.952Z,73.12
2024-04-02T11:59:44.955Z,73.12
2024-04-02T12:00:44.942Z,67.50
2024-04-02T12:01:44.927Z,73.12
2024-04-02T12:02:44.918Z,78.75
2024-04-02T12:03:44.902Z,84.38
2024-04-02T12:04:44.970Z,90.00
2024-04-02T12:05:44.909Z,90.00
2024-04-02T12:06:45.839Z,84.38
2024-04-02T12:07:44.867Z,90.00
2024-04-02T12:08:44.843Z,101.25
2024-04-02T12:09:44.834Z,151.88
2024-04-02T12:10:44.839Z,151.88
2024-04-02T12:11:44.838Z,506.25
2024-04-02T12:12:44.800Z,517.50
2024-04-02T12:13:44.791Z,585.00
2024-04-02T12:14:44.779Z,579.38
2024-04-02T12:15:44.775Z,101.25
2024-04-02T12:16:44.893Z,61.88
2024-04-02T12:17:47.725Z,50.62
2024-04-02T12:18:44.769Z,50.62
2024-04-02T12:19:44.731Z,56.25
2024-04-02T12:20:44.728Z,50.62
2024-04-02T12:21:44.711Z,45.00
2024-04-02T12:22:44.694Z,50.62
2024-04-02T12:23:44.707Z,50.62
2024-04-02T12:24:46.076Z,56.25
2024-04-02T12:25:44.666Z,61.88
2024-04-02T12:26:44.647Z,73.12
2024-04-02T12:27:44.639Z,95.62
2024-04-02T12:28:44.659Z,118.12
2024-04-02T12:29:44.617Z,163.12
2024-04-02T12:30:44.620Z,163.12
2024-04-02T12:31:44.611Z,208.12
2024-04-02T12:32:44.584Z,343.12
2024-04-02T12:33:44.572Z,174.38
2024-04-02T12:34:44.576Z,78.75
2024-04-02T12:35:44.562Z,73.12
2024-04-02T12:36:44.547Z,90.00
2024-04-02T12:37:44.560Z,123.75
2024-04-02T12:38:44.550Z,73.12
2024-04-02T12:39:44.533Z,73.12
2024-04-02T12:40:44.498Z,84.38
2024-04-02T12:41:44.507Z,146.25
2024-04-02T12:42:44.496Z,163.12
2024-04-02T12:43:44.660Z,135.00
2024-04-02T12:44:44.487Z,331.88
2024-04-02T12:45:44.450Z,663.75
2024-04-02T12:46:44.428Z,646.88
2024-04-02T12:47:44.434Z,652.50
2024-04-02T12:48:57.852Z,669.38
2024-04-02T12:49:44.445Z,405.00
2024-04-02T12:50:44.391Z,140.62
2024-04-02T12:51:44.397Z,118.12
2024-04-02T12:52:44.371Z,73.12
2024-04-02T12:53:44.356Z,61.88
2024-04-02T12:54:44.348Z,56.25
2024-04-02T12:55:44.360Z,56.25
2024-04-02T12:56:44.398Z,50.62
2024-04-02T12:57:44.321Z,33.75
2024-04-02T12:58:44.327Z,16.88
2024-04-02T12:59:44.298Z,16.88
2024-04-02T13:00:44.428Z,16.88
2024-04-02T13:01:44.275Z,28.12
2024-04-02T13:02:44.260Z,45.00